Time;durP1;ratioP1;P1;durP2;ratioP2;P2;SDS_P1;SDS_P2;PMS_P1;PMS_P2;Temp;Humidity;BMP_temperature;BMP_pressure;BME280_temperature;BME280_humidity;BME280_pressure;Samples;Min_cycle;Max_cycle;Signal;HPM_P1;HPM_P2
2021/07/17 00:00:31;;;;;;;15.60;14.27;;;24.40;99.90;;;;;;5066932;28;20863;-62
2021/07/17 00:03:00;;;;;;;15.07;13.80;;;24.40;99.90;;;;;;5072018;28;20959;-61
2021/07/17 00:05:27;;;;;;;15.20;13.73;;;24.40;99.90;;;;;;5072780;28;20558;-62
2021/07/17 00:07:54;;;;;;;16.73;15.40;;;24.40;99.90;;;;;;5059570;28;20863;-61
2021/07/17 00:10:25;;;;;;;17.10;15.63;;;24.40;99.90;;;;;;5074036;28;20989;-61
2021/07/17 00:12:52;;;;;;;16.07;14.87;;;24.40;99.90;;;;;;5070084;28;20847;-61
2021/07/17 00:15:24;;;;;;;23.10;21.00;;;24.40;99.90;;;;;;5073828;28;20527;-61
2021/07/17 00:17:51;;;;;;;19.77;17.77;;;24.40;99.90;;;;;;5071489;28;20470;-61
2021/07/17 00:20:18;;;;;;;19.47;17.47;;;24.40;99.90;;;;;;5073697;28;20470;-61
2021/07/17 00:22:45;;;;;;;16.07;14.77;;;24.40;99.90;;;;;;5073310;28;20532;-61
2021/07/17 00:25:15;;;;;;;16.17;14.77;;;24.40;99.90;;;;;;5073443;28;20470;-61
2021/07/17 00:27:42;;;;;;;19.90;17.80;;;24.40;99.90;;;;;;5065173;28;20475;-61
2021/07/17 00:30:10;;;;;;;18.90;17.30;;;24.40;99.90;;;;;;5070146;28;20464;-62
2021/07/17 00:32:39;;;;;;;24.57;22.07;;;24.40;99.90;;;;;;5072961;28;20547;-62
2021/07/17 00:35:07;;;;;;;33.60;30.23;;;24.40;99.90;;;;;;5073662;28;20470;-61
2021/07/17 00:37:34;;;;;;;31.07;28.10;;;24.40;99.90;;;;;;5072785;28;20473;-61
2021/07/17 00:40:01;;;;;;;24.23;22.03;;;24.40;99.90;;;;;;5065807;28;20994;-61
2021/07/17 00:42:30;;;;;;;17.07;15.43;;;24.40;99.90;;;;;;5069010;28;20503;-61
2021/07/17 00:44:56;;;;;;;16.60;13.63;;;24.40;99.90;;;;;;5062564;28;20501;-61
2021/07/17 00:47:24;;;;;;;21.43;19.63;;;24.40;99.90;;;;;;5071358;28;20956;-61
2021/07/17 00:49:53;;;;;;;21.37;19.20;;;24.30;99.90;;;;;;5070467;28;20484;-61
2021/07/17 00:52:20;;;;;;;18.30;16.67;;;24.30;99.90;;;;;;5071465;28;20474;-61
2021/07/17 00:54:50;;;;;;;14.70;13.43;;;24.30;99.90;;;;;;5065962;28;20470;-61
2021/07/17 00:57:19;;;;;;;22.63;20.60;;;24.30;99.90;;;;;;5064842;28;20505;-62
2021/07/17 00:59:48;;;;;;;20.17;18.33;;;24.30;99.90;;;;;;5071415;28;20550;-61
2021/07/17 01:02:18;;;;;;;15.83;14.30;;;24.30;99.90;;;;;;5067297;28;20787;-61
2021/07/17 01:04:46;;;;;;;13.40;12.30;;;24.30;99.90;;;;;;5068428;28;20964;-61
2021/07/17 01:07:15;;;;;;;14.83;13.27;;;24.30;99.90;;;;;;5066344;28;20458;-61
2021/07/17 01:09:42;;;;;;;14.17;12.97;;;24.30;99.90;;;;;;5057785;28;20459;-61
2021/07/17 01:12:09;;;;;;;15.17;13.87;;;24.30;99.90;;;;;;5067016;28;20458;-61
2021/07/17 01:14:37;;;;;;;12.93;11.93;;;24.30;99.90;;;;;;5064138;28;20467;-61
2021/07/17 01:17:04;;;;;;;12.30;11.40;;;24.30;99.90;;;;;;5072729;28;20467;-61
2021/07/17 01:19:31;;;;;;;15.93;14.40;;;24.20;99.90;;;;;;5072619;28;20544;-61
2021/07/17 01:21:59;;;;;;;16.83;15.40;;;24.30;99.90;;;;;;5072170;28;20535;-61
2021/07/17 01:24:27;;;;;;;14.20;13.10;;;24.20;99.90;;;;;;5072502;28;20547;-61
2021/07/17 01:26:54;;;;;;;11.97;10.90;;;24.30;99.90;;;;;;5072365;28;20459;-61
2021/07/17 01:29:21;;;;;;;22.20;20.27;;;24.20;99.90;;;;;;5067851;28;20479;-61
2021/07/17 01:31:48;;;;;;;19.23;17.43;;;24.30;99.90;;;;;;5065471;28;20524;-61
2021/07/17 01:34:15;;;;;;;14.43;13.23;;;24.20;99.90;;;;;;5070829;28;20470;-61
2021/07/17 01:36:42;;;;;;;18.47;16.73;;;24.20;99.90;;;;;;5070211;28;20475;-61
2021/07/17 01:39:11;;;;;;;16.70;14.90;;;24.20;99.90;;;;;;5070246;28;20467;-61
2021/07/17 01:41:38;;;;;;;17.13;15.47;;;24.20;99.90;;;;;;5070400;28;20478;-60
2021/07/17 01:44:07;;;;;;;15.00;13.73;;;24.20;99.90;;;;;;5064910;28;20532;-61
2021/07/17 01:46:34;;;;;;;13.43;12.40;;;24.20;99.90;;;;;;5070575;28;20965;-62
2021/07/17 01:49:01;;;;;;;13.60;12.50;;;24.20;99.90;;;;;;5061707;28;20536;-61
2021/07/17 01:51:28;;;;;;;12.40;11.40;;;24.20;99.90;;;;;;5070459;28;20466;-61
2021/07/17 01:53:56;;;;;;;12.00;10.80;;;24.20;99.90;;;;;;5056562;28;20669;-61
2021/07/17 01:56:26;;;;;;;11.33;10.53;;;24.20;99.90;;;;;;5071071;28;20565;-61
2021/07/17 01:58:54;;;;;;;11.73;10.83;;;24.20;99.90;;;;;;5067150;28;20524;-61
2021/07/17 02:01:22;;;;;;;24.43;22.13;;;24.20;99.90;;;;;;5063518;28;20467;-61
2021/07/17 02:03:49;;;;;;;18.70;17.00;;;24.20;99.90;;;;;;5071982;28;20539;-61
2021/07/17 02:06:24;;;;;;;16.87;15.20;;;24.20;99.90;;;;;;5072179;28;20793;-61
2021/07/17 02:08:51;;;;;;;16.27;14.60;;;24.10;99.90;;;;;;5071591;28;20531;-61
2021/07/17 02:11:18;;;;;;;14.80;13.40;;;24.10;99.90;;;;;;5072147;28;20473;-61
2021/07/17 02:13:47;;;;;;;12.23;11.17;;;24.10;99.90;;;;;;5062458;28;21086;-60
2021/07/17 02:16:15;;;;;;;12.80;11.60;;;24.10;99.90;;;;;;5061065;28;20541;-61
2021/07/17 02:18:44;;;;;;;20.10;18.13;;;24.10;99.90;;;;;;5071806;28;20541;-60
2021/07/17 02:21:13;;;;;;;17.40;15.80;;;24.00;99.90;;;;;;5072115;28;20463;-62
2021/07/17 02:23:40;;;;;;;12.50;11.50;;;24.10;99.90;;;;;;5071487;28;20807;-62
2021/07/17 02:26:07;;;;;;;12.43;11.27;;;24.00;99.90;;;;;;5071591;28;20499;-61
2021/07/17 02:28:35;;;;;;;10.73;9.77;;;24.00;99.90;;;;;;5066028;28;20477;-61
2021/07/17 02:31:04;;;;;;;13.20;12.00;;;24.00;99.90;;;;;;5071627;28;20462;-61
2021/07/17 02:33:30;;;;;;;11.17;10.17;;;24.00;99.90;;;;;;5072146;28;20952;-62
2021/07/17 02:35:58;;;;;;;10.30;9.20;;;24.00;99.90;;;;;;5071616;28;20478;-61
2021/07/17 02:38:25;;;;;;;14.23;12.83;;;23.90;99.90;;;;;;5071924;28;20859;-61
2021/07/17 02:40:52;;;;;;;11.37;10.27;;;23.90;99.90;;;;;;5065668;28;20470;-61
2021/07/17 02:43:19;;;;;;;9.97;9.13;;;23.90;99.90;;;;;;5067254;28;20460;-61
2021/07/17 02:45:46;;;;;;;10.17;9.37;;;23.90;99.90;;;;;;5059034;28;20477;-61
2021/07/17 02:48:15;;;;;;;10.80;9.80;;;23.90;99.90;;;;;;5066346;28;20547;-61
2021/07/17 02:50:42;;;;;;;15.90;14.50;;;23.90;99.90;;;;;;5071342;28;20797;-61
2021/07/17 02:53:09;;;;;;;13.57;12.20;;;23.80;99.90;;;;;;5068202;28;20956;-61
2021/07/17 02:55:36;;;;;;;12.07;10.97;;;23.80;99.90;;;;;;5071829;28;20462;-61
2021/07/17 02:58:03;;;;;;;11.77;10.73;;;23.80;99.90;;;;;;5071416;28;20532;-61
2021/07/17 03:00:33;;;;;;;11.20;10.20;;;23.80;99.90;;;;;;5068273;28;20494;-61
2021/07/17 03:03:01;;;;;;;11.97;10.77;;;23.80;99.90;;;;;;5066587;28;20467;-61
2021/07/17 03:05:30;;;;;;;10.00;9.07;;;23.70;99.90;;;;;;5071629;28;20584;-61
2021/07/17 03:07:57;;;;;;;11.47;10.37;;;23.80;99.90;;;;;;5071245;28;21038;-61
2021/07/17 03:10:24;;;;;;;11.17;10.20;;;23.80;99.90;;;;;;5071714;28;20819;-61
2021/07/17 03:12:51;;;;;;;14.50;13.20;;;23.70;99.90;;;;;;5071384;28;20519;-61
2021/07/17 03:15:17;;;;;;;12.67;11.23;;;23.70;99.90;;;;;;5066701;28;20532;-61
2021/07/17 03:17:44;;;;;;;10.47;9.47;;;23.70;99.90;;;;;;5072104;28;20467;-60
2021/07/17 03:20:11;;;;;;;12.77;10.07;;;23.70;99.90;;;;;;5071495;28;20535;-61
2021/07/17 03:22:40;;;;;;;10.10;9.10;;;23.70;99.90;;;;;;5075150;28;20863;-61
2021/07/17 03:25:08;;;;;;;11.97;10.80;;;23.70;99.90;;;;;;5074860;28;20463;-61
2021/07/17 03:27:35;;;;;;;10.40;9.30;;;23.70;99.90;;;;;;5067390;28;20466;-61
2021/07/17 03:30:03;;;;;;;10.70;9.53;;;23.70;99.90;;;;;;5074690;28;20532;-61
2021/07/17 03:32:30;;;;;;;13.00;11.70;;;23.70;99.90;;;;;;5074833;28;20466;-61
2021/07/17 03:34:57;;;;;;;10.53;8.03;;;23.70;99.90;;;;;;5074550;28;20544;-61
2021/07/17 03:37:24;;;;;;;9.60;8.80;;;23.70;99.90;;;;;;5074601;28;20543;-61
2021/07/17 03:39:53;;;;;;;9.33;8.43;;;23.70;99.90;;;;;;5074264;28;20524;-61
2021/07/17 03:42:21;;;;;;;9.80;8.80;;;23.70;99.90;;;;;;5074615;28;20470;-61
2021/07/17 03:44:48;;;;;;;9.90;8.90;;;23.70;99.90;;;;;;5066639;28;20528;-61
2021/07/17 03:47:15;;;;;;;9.83;9.07;;;23.70;99.90;;;;;;5073420;28;20463;-61
2021/07/17 03:49:42;;;;;;;10.43;9.53;;;23.60;99.90;;;;;;5074455;28;20528;-61
2021/07/17 03:52:09;;;;;;;10.87;9.87;;;23.60;99.90;;;;;;5074195;28;20512;-61
2021/07/17 03:54:36;;;;;;;9.00;8.20;;;23.70;99.90;;;;;;5070824;28;20968;-61
2021/07/17 03:57:04;;;;;;;9.40;8.50;;;23.70;99.90;;;;;;5073963;28;20806;-61
2021/07/17 03:59:31;;;;;;;9.60;8.80;;;23.70;99.90;;;;;;5074417;28;20512;-61
2021/07/17 04:01:58;;;;;;;9.10;8.30;;;23.70;99.90;;;;;;5063914;28;20474;-61
2021/07/17 04:04:26;;;;;;;10.30;9.30;;;23.70;99.90;;;;;;5074505;28;20975;-61
2021/07/17 04:06:52;;;;;;;8.70;8.00;;;23.70;99.90;;;;;;5073934;28;20558;-62
2021/07/17 04:09:19;;;;;;;8.63;7.80;;;23.70;99.90;;;;;;5074213;28;20462;-61
2021/07/17 04:11:46;;;;;;;13.60;9.20;;;23.70;99.90;;;;;;5074296;28;21007;-62
2021/07/17 04:14:15;;;;;;;12.53;10.30;;;23.70;99.90;;;;;;5071522;28;20534;-62
2021/07/17 04:16:42;;;;;;;9.87;8.97;;;23.70;99.90;;;;;;5071889;28;20466;-62
2021/07/17 04:19:09;;;;;;;8.73;8.00;;;23.70;99.90;;;;;;5073804;28;20579;-61
2021/07/17 04:21:36;;;;;;;8.17;7.37;;;23.70;99.90;;;;;;5073815;28;20471;-61
2021/07/17 04:24:03;;;;;;;9.80;7.37;;;23.60;99.90;;;;;;5073598;28;20470;-61
2021/07/17 04:26:30;;;;;;;8.53;7.63;;;23.70;99.90;;;;;;5059721;28;20972;-62
2021/07/17 04:28:57;;;;;;;8.37;7.57;;;23.60;99.90;;;;;;5063098;28;20532;-61
2021/07/17 04:31:25;;;;;;;8.17;7.33;;;23.60;99.90;;;;;;5073847;28;20963;-61
2021/07/17 04:33:52;;;;;;;9.67;8.63;;;23.70;99.90;;;;;;5073610;28;20466;-61
2021/07/17 04:36:19;;;;;;;8.63;7.93;;;23.60;99.90;;;;;;5073712;28;20462;-61
2021/07/17 04:38:49;;;;;;;11.80;10.70;;;23.70;99.90;;;;;;5073529;28;20525;-62
2021/07/17 04:41:16;;;;;;;10.13;9.20;;;23.70;99.90;;;;;;5073037;28;20463;-61
2021/07/17 04:43:43;;;;;;;9.80;8.90;;;23.70;99.90;;;;;;5065413;28;20463;-62
2021/07/17 04:46:10;;;;;;;10.37;9.37;;;23.70;99.90;;;;;;5070461;28;20474;-61
2021/07/17 04:48:38;;;;;;;8.97;8.10;;;23.70;99.90;;;;;;5073749;28;20495;-62
2021/07/17 04:51:05;;;;;;;9.63;8.70;;;23.60;99.90;;;;;;5072975;28;20869;-62
2021/07/17 04:53:32;;;;;;;13.03;11.73;;;23.70;99.90;;;;;;5069267;28;20539;-62
2021/07/17 04:55:59;;;;;;;12.43;11.33;;;23.70;99.90;;;;;;5072979;28;20866;-62
2021/07/17 04:58:26;;;;;;;11.03;10.07;;;23.70;99.90;;;;;;5073107;28;20527;-62
2021/07/17 05:00:53;;;;;;;11.87;10.87;;;23.70;99.90;;;;;;5070035;28;20560;-59
2021/07/17 05:03:19;;;;;;;9.97;9.00;;;23.70;99.90;;;;;;5073214;28;20466;-61
2021/07/17 05:05:48;;;;;;;9.47;8.57;;;23.60;99.90;;;;;;5073146;28;20508;-62
2021/07/17 05:08:15;;;;;;;12.13;10.93;;;23.60;99.90;;;;;;5072516;28;20473;-61
2021/07/17 05:10:42;;;;;;;10.10;9.13;;;23.60;99.90;;;;;;5073021;28;20531;-61
2021/07/17 05:13:13;;;;;;;13.10;8.70;;;23.60;99.90;;;;;;5072993;28;20524;-61
2021/07/17 05:15:40;;;;;;;11.77;10.00;;;23.60;99.90;;;;;;5063497;28;20532;-61
2021/07/17 05:18:08;;;;;;;9.73;8.80;;;23.60;99.90;;;;;;5072661;28;20504;-62
2021/07/17 05:20:35;;;;;;;10.40;9.37;;;23.60;99.90;;;;;;5072653;28;20858;-61
2021/07/17 05:23:04;;;;;;;12.43;11.13;;;23.60;99.90;;;;;;5072596;28;20968;-61
2021/07/17 05:25:31;;;;;;;11.23;10.13;;;23.60;99.90;;;;;;5071372;28;20462;-61
2021/07/17 05:27:58;;;;;;;10.53;9.47;;;23.70;99.90;;;;;;5072182;28;20458;-61
2021/07/17 05:30:25;;;;;;;10.33;9.47;;;23.70;99.90;;;;;;5072681;28;20469;-62
2021/07/17 05:32:52;;;;;;;11.37;10.30;;;23.70;99.90;;;;;;5072668;28;20790;-62
2021/07/17 05:35:19;;;;;;;11.30;9.97;;;23.70;99.90;;;;;;5072402;28;20462;-61
2021/07/17 05:37:47;;;;;;;11.40;10.30;;;23.80;99.90;;;;;;5072101;28;21022;-62
2021/07/17 05:40:16;;;;;;;11.27;10.37;;;23.80;99.90;;;;;;5072037;28;20524;-61
2021/07/17 05:42:43;;;;;;;11.70;10.80;;;23.80;99.90;;;;;;5072784;28;20546;-62
2021/07/17 05:45:11;;;;;;;14.73;11.40;;;23.90;99.90;;;;;;5063179;28;20458;-62
2021/07/17 05:47:38;;;;;;;12.73;11.63;;;23.90;99.90;;;;;;5063822;28;20470;-61
2021/07/17 05:50:06;;;;;;;12.63;11.33;;;24.00;99.90;;;;;;5072148;28;20466;-61
2021/07/17 05:52:34;;;;;;;12.07;11.07;;;24.00;99.90;;;;;;5072382;28;20774;-62
2021/07/17 05:55:02;;;;;;;10.57;9.57;;;24.00;99.90;;;;;;5069619;28;20459;-61
2021/07/17 05:57:32;;;;;;;10.27;9.37;;;24.00;99.90;;;;;;5072232;28;20473;-62
2021/07/17 05:59:59;;;;;;;12.10;10.90;;;24.00;99.90;;;;;;5071939;28;20470;-62
2021/07/17 06:02:25;;;;;;;12.80;11.50;;;24.10;99.90;;;;;;5063674;28;20462;-61
2021/07/17 06:04:53;;;;;;;12.53;10.70;;;24.00;99.90;;;;;;5072344;28;20504;-62
2021/07/17 06:07:20;;;;;;;11.90;10.80;;;24.10;99.90;;;;;;5071993;28;20505;-61
2021/07/17 06:09:47;;;;;;;13.53;12.40;;;24.10;99.90;;;;;;5072534;28;20470;-62
2021/07/17 06:12:14;;;;;;;15.70;14.07;;;24.10;99.90;;;;;;5071696;28;20528;-62
2021/07/17 06:14:43;;;;;;;13.80;12.50;;;24.10;99.90;;;;;;5067891;28;20817;-61
2021/07/17 06:17:12;;;;;;;13.50;12.27;;;24.10;99.90;;;;;;5070652;28;20466;-62
2021/07/17 06:19:39;;;;;;;13.53;12.30;;;24.10;99.90;;;;;;5072241;28;20550;-62
2021/07/17 06:22:06;;;;;;;14.10;13.00;;;24.20;99.90;;;;;;5071887;28;20466;-61
2021/07/17 06:24:33;;;;;;;14.10;12.80;;;24.20;99.90;;;;;;5072248;28;20687;-62
2021/07/17 06:27:00;;;;;;;13.93;12.77;;;24.20;99.90;;;;;;5071593;28;20535;-59
2021/07/17 06:29:27;;;;;;;17.23;15.27;;;24.20;99.90;;;;;;5072293;28;20955;-61
2021/07/17 06:31:55;;;;;;;14.20;13.00;;;24.30;99.90;;;;;;5072049;28;20466;-62
2021/07/17 06:34:23;;;;;;;14.63;13.20;;;24.30;99.90;;;;;;5071832;28;20466;-62
2021/07/17 06:36:53;;;;;;;16.53;15.13;;;24.30;99.90;;;;;;5072128;28;20975;-62
2021/07/17 06:39:21;;;;;;;16.60;14.90;;;24.30;99.90;;;;;;5071513;28;20466;-61
2021/07/17 06:41:48;;;;;;;18.13;16.53;;;24.40;99.90;;;;;;5072329;28;20804;-61
2021/07/17 06:44:15;;;;;;;15.23;13.90;;;24.40;99.90;;;;;;5068059;28;20471;-61
2021/07/17 06:46:42;;;;;;;14.80;13.60;;;24.50;99.90;;;;;;5068940;28;20993;-62
2021/07/17 06:49:10;;;;;;;16.40;15.10;;;24.50;99.90;;;;;;5071602;28;20956;-61
2021/07/17 06:51:37;;;;;;;17.53;15.97;;;24.50;99.90;;;;;;5071897;28;20474;-61
2021/07/17 06:54:04;;;;;;;17.63;16.10;;;24.60;99.90;;;;;;5071306;28;20474;-61
2021/07/17 06:56:31;;;;;;;19.03;17.33;;;24.70;99.90;;;;;;5075912;28;20512;-61
2021/07/17 06:58:58;;;;;;;18.27;16.63;;;24.70;99.90;;;;;;5072379;28;20467;-61
2021/07/17 07:01:25;;;;;;;18.80;17.10;;;24.80;99.90;;;;;;5067088;28;20956;-61
2021/07/17 07:03:52;;;;;;;17.00;15.53;;;24.80;99.90;;;;;;5075661;28;20547;-61
2021/07/17 07:06:20;;;;;;;18.80;17.20;;;24.80;99.90;;;;;;5075131;28;20474;-61
2021/07/17 07:08:47;;;;;;;17.27;15.77;;;24.80;99.90;;;;;;5075295;28;20610;-62
2021/07/17 07:11:14;;;;;;;18.63;16.87;;;24.80;99.90;;;;;;5075151;28;20466;-61
2021/07/17 07:13:41;;;;;;;18.83;17.23;;;24.80;99.90;;;;;;5075503;28;20466;-60
2021/07/17 07:16:08;;;;;;;19.03;17.37;;;24.90;99.90;;;;;;5062418;28;20454;-60
2021/07/17 07:18:35;;;;;;;22.37;20.27;;;24.80;99.90;;;;;;5075202;28;20972;-61
2021/07/17 07:21:02;;;;;;;19.57;17.40;;;24.80;99.90;;;;;;5075086;28;20956;-61
2021/07/17 07:23:30;;;;;;;17.70;16.30;;;24.80;99.90;;;;;;5074865;28;20551;-61
2021/07/17 07:25:57;;;;;;;19.77;17.97;;;24.90;99.90;;;;;;5075193;28;20462;-61
2021/07/17 07:28:24;;;;;;;18.33;16.83;;;24.90;99.90;;;;;;5074731;28;20828;-61
2021/07/17 07:30:51;;;;;;;18.97;17.07;;;24.90;99.90;;;;;;5075193;28;20474;-61
2021/07/17 07:33:18;;;;;;;19.27;17.43;;;24.90;99.90;;;;;;5074794;28;20952;-61
2021/07/17 07:35:45;;;;;;;21.77;19.77;;;25.00;99.90;;;;;;5075029;28;20535;-61
2021/07/17 07:38:13;;;;;;;23.57;21.67;;;25.00;99.90;;;;;;5074550;28;20494;-61
2021/07/17 07:40:41;;;;;;;20.70;18.80;;;25.10;99.90;;;;;;5061925;28;20527;-61
2021/07/17 07:43:10;;;;;;;20.10;18.57;;;25.10;99.90;;;;;;5071173;28;20528;-60
2021/07/17 07:45:37;;;;;;;19.57;17.70;;;25.10;99.90;;;;;;5061724;28;20804;-60
2021/07/17 07:48:04;;;;;;;20.23;18.40;;;25.20;99.90;;;;;;5074489;28;20470;-61
2021/07/17 07:50:31;;;;;;;20.60;18.80;;;25.20;99.90;;;;;;5074487;28;20462;-61
2021/07/17 07:52:59;;;;;;;21.83;20.03;;;25.20;99.90;;;;;;5074756;28;20463;-61
2021/07/17 07:55:26;;;;;;;20.43;18.47;;;25.20;99.90;;;;;;5074144;28;20969;-61
2021/07/17 07:57:54;;;;;;;19.67;17.87;;;25.30;99.90;;;;;;5074290;28;20470;-62
2021/07/17 08:00:21;;;;;;;18.93;17.43;;;25.30;99.90;;;;;;5071953;28;20493;-62
2021/07/17 08:02:48;;;;;;;19.90;18.10;;;25.40;99.90;;;;;;5069277;28;20471;-62
2021/07/17 08:05:15;;;;;;;18.93;17.13;;;25.40;99.90;;;;;;5073667;28;20470;-61
2021/07/17 08:07:42;;;;;;;18.87;17.30;;;25.40;99.90;;;;;;5074374;28;20505;-61
2021/07/17 08:10:10;;;;;;;20.70;18.80;;;25.40;99.90;;;;;;5074218;28;20934;-60
2021/07/17 08:12:36;;;;;;;18.80;17.30;;;25.40;99.90;;;;;;5073350;28;20877;-61
2021/07/17 08:15:06;;;;;;;18.30;16.57;;;25.40;99.90;;;;;;5066764;28;20498;-60
2021/07/17 08:17:33;;;;;;;16.60;15.10;;;25.50;99.90;;;;;;5053761;28;20455;-61
2021/07/17 08:20:00;;;;;;;17.93;16.20;;;25.50;99.90;;;;;;5054233;28;20814;-61
2021/07/17 08:22:26;;;;;;;20.10;18.40;;;25.60;99.90;;;;;;5053658;28;20521;-61
2021/07/17 08:24:53;;;;;;;17.50;15.97;;;25.60;99.90;;;;;;5054228;28;20467;-61
2021/07/17 08:27:20;;;;;;;17.80;16.10;;;25.60;99.90;;;;;;5053764;28;20509;-61
2021/07/17 08:29:47;;;;;;;17.20;15.80;;;25.60;99.90;;;;;;5054517;28;20482;-60
2021/07/17 08:32:15;;;;;;;18.30;16.53;;;25.70;99.90;;;;;;5053688;28;20525;-61
2021/07/17 08:34:43;;;;;;;17.50;16.07;;;25.70;99.90;;;;;;5054141;28;20539;-61
2021/07/17 08:37:11;;;;;;;16.83;15.37;;;25.60;99.90;;;;;;5053680;28;20900;-60
2021/07/17 08:39:37;;;;;;;19.60;17.90;;;25.70;99.90;;;;;;5053859;28;20467;-61
2021/07/17 08:42:05;;;;;;;17.93;16.40;;;25.70;99.90;;;;;;5054009;28;20467;-61
2021/07/17 08:44:32;;;;;;;18.93;17.10;;;25.70;99.90;;;;;;5052148;28;21006;-61
2021/07/17 08:47:02;;;;;;;17.90;16.27;;;25.70;99.90;;;;;;5053839;28;20479;-60
2021/07/17 08:49:31;;;;;;;18.20;16.60;;;25.70;99.90;;;;;;5053397;28;21059;-61
2021/07/17 08:51:59;;;;;;;20.87;19.03;;;25.70;99.90;;;;;;5053787;28;20521;-61
2021/07/17 08:54:27;;;;;;;18.43;16.00;;;25.80;99.90;;;;;;5053289;28;20463;-61
2021/07/17 08:56:55;;;;;;;19.47;17.60;;;25.80;99.90;;;;;;5054002;28;20540;-61
2021/07/17 08:59:21;;;;;;;19.97;18.27;;;25.80;99.90;;;;;;5052978;28;20471;-61
2021/07/17 09:01:49;;;;;;;20.80;19.10;;;25.80;99.90;;;;;;5053635;28;20471;-60
2021/07/17 09:04:17;;;;;;;17.77;16.10;;;25.80;99.90;;;;;;5053380;28;21007;-60
2021/07/17 09:06:45;;;;;;;20.03;18.10;;;25.90;99.90;;;;;;5053789;28;20467;-61
2021/07/17 09:09:28;;;;;;;19.73;18.00;;;25.90;99.90;;;;;;5052877;28;20475;-60
2021/07/17 09:11:55;;;;;;;17.30;15.77;;;25.90;99.90;;;;;;5053495;28;20557;-62
2021/07/17 09:14:36;;;;;;;18.70;16.90;;;25.90;99.90;;;;;;5052943;28;20474;-61
2021/07/17 09:17:03;;;;;;;17.50;16.10;;;25.90;99.90;;;;;;5052941;28;20550;-61
2021/07/17 09:19:30;;;;;;;17.10;15.80;;;25.90;99.90;;;;;;5052647;28;20475;-60
2021/07/17 09:21:58;;;;;;;16.70;15.40;;;25.90;99.90;;;;;;5053251;28;20467;-60
2021/07/17 09:24:25;;;;;;;17.20;15.70;;;25.90;99.90;;;;;;5053011;28;20795;-60
2021/07/17 09:26:56;;;;;;;18.37;16.70;;;25.90;99.90;;;;;;5053057;28;20467;-61
2021/07/17 09:29:33;;;;;;;17.47;16.00;;;26.00;99.90;;;;;;5052638;28;20873;-61
2021/07/17 09:32:00;;;;;;;17.60;16.10;;;26.00;99.90;;;;;;5053122;28;20463;-61
2021/07/17 09:34:30;;;;;;;16.70;15.30;;;26.00;99.90;;;;;;5052719;28;20534;-61
2021/07/17 09:37:00;;;;;;;17.40;15.90;;;26.00;99.90;;;;;;5052965;28;20466;-61
2021/07/17 09:39:29;;;;;;;16.70;15.30;;;26.10;99.90;;;;;;5052484;28;20475;-61
2021/07/17 09:41:58;;;;;;;19.17;17.40;;;26.10;99.90;;;;;;5052978;28;20467;-61
2021/07/17 09:44:28;;;;;;;18.27;16.77;;;26.10;99.90;;;;;;5065940;28;20520;-61
2021/07/17 09:46:55;;;;;;;17.00;15.50;;;26.20;99.90;;;;;;5072755;28;20470;-61
2021/07/17 09:49:24;;;;;;;14.70;13.60;;;26.20;99.90;;;;;;5072424;28;20470;-62
2021/07/17 09:55:04;;;;;;;16.50;14.87;;;26.20;99.90;;;;;;5123700;27;20620;-61
2021/07/17 09:57:32;;;;;;;16.27;14.90;;;26.20;99.90;;;;;;5112015;27;20927;-61
2021/07/17 10:00:06;;;;;;;17.30;15.80;;;26.20;99.90;;;;;;5130972;27;20459;-61
2021/07/17 10:02:35;;;;;;;17.13;15.63;;;26.20;99.90;;;;;;5130688;27;20875;-61
2021/07/17 10:05:03;;;;;;;20.13;16.77;;;26.20;99.90;;;;;;5130967;27;20550;-61
2021/07/17 10:07:30;;;;;;;17.33;15.70;;;26.20;99.90;;;;;;5130436;27;20476;-61
2021/07/17 10:09:57;;;;;;;18.27;16.67;;;26.30;99.90;;;;;;5130787;27;21032;-61
2021/07/17 10:12:34;;;;;;;17.00;15.50;;;26.30;99.90;;;;;;5130335;27;20961;-61
2021/07/17 10:15:04;;;;;;;17.00;15.50;;;26.30;99.90;;;;;;5130720;27;21032;-62
2021/07/17 10:17:35;;;;;;;18.80;17.17;;;26.40;99.90;;;;;;5130178;27;20524;-61
2021/07/17 10:20:06;;;;;;;17.20;15.67;;;26.50;99.90;;;;;;5130917;27;20467;-61
2021/07/17 10:22:34;;;;;;;17.90;16.40;;;26.50;99.90;;;;;;5130176;27;20537;-61
2021/07/17 10:25:01;;;;;;;17.33;15.87;;;26.50;99.90;;;;;;5130446;27;20468;-62
2021/07/17 10:27:28;;;;;;;18.40;16.60;;;26.50;99.90;;;;;;5130092;27;20588;-61
2021/07/17 10:29:57;;;;;;;17.20;15.80;;;26.60;99.90;;;;;;5130592;27;20466;-61
2021/07/17 10:32:25;;;;;;;15.60;14.40;;;26.60;99.90;;;;;;5130025;27;20464;-61
2021/07/17 10:34:51;;;;;;;19.00;17.07;;;26.60;99.90;;;;;;5130439;27;20493;-61
2021/07/17 10:37:21;;;;;;;17.93;16.43;;;26.60;99.90;;;;;;5130175;27;20517;-60
2021/07/17 10:39:56;;;;;;;19.63;18.07;;;26.70;99.90;;;;;;5130188;27;20524;-60
2021/07/17 10:42:24;;;;;;;16.90;15.50;;;26.70;99.90;;;;;;5130353;27;20965;-61
2021/07/17 10:44:54;;;;;;;18.87;17.27;;;26.80;99.90;;;;;;5129781;27;20759;-61
2021/07/17 10:47:23;;;;;;;18.63;17.13;;;26.90;99.90;;;;;;5129903;27;20957;-61
2021/07/17 10:49:52;;;;;;;18.73;17.10;;;26.90;99.90;;;;;;5129817;27;20460;-61
2021/07/17 10:52:36;;;;;;;16.80;15.50;;;27.00;99.90;;;;;;5129760;27;20460;-61
2021/07/17 10:55:28;;;;;;;18.27;16.57;;;27.10;99.90;;;;;;5130311;27;20443;-61
2021/07/17 10:57:59;;;;;;;17.97;16.53;;;27.20;99.90;;;;;;5129951;27;20468;-61
2021/07/17 11:00:46;;;;;;;16.90;15.50;;;27.30;99.90;;;;;;5129692;27;20818;-61
2021/07/17 11:03:22;;;;;;;18.37;16.77;;;27.40;99.90;;;;;;5129181;27;20456;-61
2021/07/17 11:05:50;;;;;;;16.57;14.97;;;27.50;99.90;;;;;;5117118;27;20456;-60
2021/07/17 11:08:30;;;;;;;17.43;15.73;;;27.50;99.90;;;;;;5115912;27;20467;-61
2021/07/17 11:10:58;;;;;;;17.03;15.63;;;27.60;99.90;;;;;;5115670;27;21001;-61
2021/07/17 11:13:31;;;;;;;15.93;14.73;;;27.60;99.90;;;;;;5115694;27;21033;-61
2021/07/17 11:15:58;;;;;;;17.33;15.83;;;27.70;99.90;;;;;;5103334;27;20537;-61
2021/07/17 11:18:44;;;;;;;16.07;14.77;;;27.80;99.90;;;;;;5095494;28;20461;-61
2021/07/17 11:21:22;;;;;;;15.90;14.57;;;27.80;99.90;;;;;;5094977;28;20463;-61
2021/07/17 11:23:49;;;;;;;15.13;13.93;;;27.90;99.90;;;;;;5095413;28;20567;-61
2021/07/17 11:26:20;;;;;;;14.23;13.13;;;28.00;99.90;;;;;;5094691;28;20517;-62
2021/07/17 11:29:07;;;;;;;15.33;14.03;;;28.00;99.90;;;;;;5095294;28;20465;-61
2021/07/17 11:31:45;;;;;;;14.37;13.17;;;28.10;99.90;;;;;;5094943;28;20461;-61
2021/07/17 11:34:35;;;;;;;14.20;13.10;;;28.20;99.90;;;;;;5095253;28;20781;-61
2021/07/17 11:37:06;;;;;;;14.77;13.67;;;28.30;99.90;;;;;;5095003;28;20945;-62
2021/07/17 11:39:35;;;;;;;17.10;15.60;;;28.20;99.90;;;;;;5095050;28;20972;-61
2021/07/17 11:42:04;;;;;;;16.77;15.17;;;28.20;99.90;;;;;;5094544;28;20466;-61
2021/07/17 11:44:33;;;;;;;14.40;13.10;;;28.20;99.90;;;;;;5109814;27;20493;-61
2021/07/17 11:47:02;;;;;;;14.43;13.13;;;28.20;99.90;;;;;;5114922;27;20460;-62
2021/07/17 11:49:32;;;;;;;15.03;13.93;;;28.30;99.90;;;;;;5115219;27;20464;-61
2021/07/17 11:52:01;;;;;;;14.07;13.00;;;28.30;99.90;;;;;;5114741;27;20468;-61
2021/07/17 11:54:31;;;;;;;17.30;15.73;;;28.40;99.90;;;;;;5114808;27;20468;-61
2021/07/17 11:57:03;;;;;;;15.03;13.67;;;28.40;99.90;;;;;;5114672;27;20969;-61
2021/07/17 11:59:30;;;;;;;13.00;11.90;;;28.50;99.90;;;;;;5114807;27;20949;-62
2021/07/17 12:02:03;;;;;;;14.27;13.27;;;28.50;99.90;;;;;;5114658;27;20818;-62
2021/07/17 12:04:33;;;;;;;15.50;14.20;;;28.60;99.90;;;;;;5114809;27;20464;-61
2021/07/17 12:07:02;;;;;;;15.10;13.90;;;28.60;99.90;;;;;;5114635;27;20461;-62
2021/07/17 12:09:36;;;;;;;13.33;12.33;;;28.60;99.90;;;;;;5114889;27;20522;-61
2021/07/17 12:12:26;;;;;;;14.33;13.23;;;28.60;99.90;;;;;;5114588;27;20456;-62
2021/07/17 12:15:01;;;;;;;14.40;13.30;;;28.60;99.90;;;;;;5111521;27;20464;-62
2021/07/17 12:17:29;;;;;;;13.77;12.67;;;28.70;99.90;;;;;;5093181;28;20955;-61
2021/07/17 12:20:04;;;;;;;14.10;12.80;;;28.70;99.90;;;;;;5093888;28;20469;-62
2021/07/17 12:22:31;;;;;;;14.63;13.43;;;28.70;99.90;;;;;;5094071;28;20465;-61
2021/07/17 12:25:03;;;;;;;15.13;13.63;;;28.80;99.90;;;;;;5093905;28;20523;-62
2021/07/17 12:27:30;;;;;;;14.50;13.30;;;28.80;99.90;;;;;;5093945;28;20514;-61
2021/07/17 12:29:57;;;;;;;14.20;12.90;;;28.80;99.90;;;;;;5093626;28;20470;-62
2021/07/17 12:32:24;;;;;;;14.27;13.17;;;28.80;99.90;;;;;;5094153;28;20538;-62
2021/07/17 12:34:57;;;;;;;13.57;12.37;;;28.70;99.90;;;;;;5093492;28;20473;-61
2021/07/17 12:37:30;;;;;;;13.63;12.63;;;28.70;99.90;;;;;;5093708;28;20530;-60
2021/07/17 12:40:08;;;;;;;12.87;11.87;;;28.70;99.90;;;;;;5093647;28;20861;-63